Time;durP1;ratioP1;P1;durP2;ratioP2;P2;SDS_P1;SDS_P2;PMS_P1;PMS_P2;Temp;Humidity;BMP_temperature;BMP_pressure;BME280_temperature;BME280_humidity;BME280_pressure;Samples;Min_cycle;Max_cycle;Signal;HPM_P1;HPM_P2
2021/08/12 00:01:15;;;;;;;17.30;13.95;;;18.90;99.90;;;;;;5044271;28;20018;-75
2021/08/12 00:03:41;;;;;;;18.50;14.18;;;18.80;99.90;;;;;;5046114;28;20382;-74
2021/08/12 00:06:06;;;;;;;18.27;14.10;;;18.80;99.90;;;;;;5037460;28;20041;-74
2021/08/12 00:08:32;;;;;;;15.85;13.73;;;18.80;99.90;;;;;;5044159;28;20080;-74
2021/08/12 00:10:58;;;;;;;14.18;11.35;;;18.80;99.90;;;;;;5048229;28;20095;-76
2021/08/12 00:13:23;;;;;;;13.95;11.68;;;18.80;99.90;;;;;;5043491;28;20010;-77
2021/08/12 00:15:49;;;;;;;15.93;11.60;;;18.80;99.90;;;;;;5039500;28;20486;-74
2021/08/12 00:18:16;;;;;;;17.33;11.63;;;18.80;99.90;;;;;;5041220;28;20534;-74
2021/08/12 00:20:41;;;;;;;12.93;11.60;;;18.70;99.90;;;;;;5040489;28;20024;-74
2021/08/12 00:23:08;;;;;;;17.40;11.75;;;18.70;99.90;;;;;;5047629;28;20052;-73
2021/08/12 00:25:33;;;;;;;16.63;13.27;;;18.70;99.90;;;;;;5038281;28;20459;-75
2021/08/12 00:27:59;;;;;;;17.77;14.13;;;18.70;99.90;;;;;;5046832;28;20466;-77
2021/08/12 00:30:24;;;;;;;18.13;14.30;;;18.60;99.90;;;;;;5047570;28;20017;-75
2021/08/12 00:32:50;;;;;;;19.92;14.63;;;18.70;99.90;;;;;;5044152;28;20033;-76
2021/08/12 00:35:16;;;;;;;12.90;11.43;;;18.60;99.90;;;;;;5043907;28;20096;-76
2021/08/12 00:37:42;;;;;;;11.90;10.52;;;18.60;99.90;;;;;;5050045;28;20033;-75
2021/08/12 00:40:08;;;;;;;16.73;12.07;;;18.60;99.90;;;;;;5046978;28;20032;-76
2021/08/12 00:42:34;;;;;;;33.17;13.10;;;18.60;99.90;;;;;;5047847;28;20031;-76
2021/08/12 00:45:00;;;;;;;12.15;9.65;;;18.60;99.90;;;;;;5048454;28;20107;-75
2021/08/12 00:47:26;;;;;;;14.05;9.35;;;18.60;99.90;;;;;;5054024;28;20076;-76
2021/08/12 00:49:52;;;;;;;17.00;10.18;;;18.50;99.90;;;;;;5040960;28;20045;-76
2021/08/12 00:52:18;;;;;;;14.57;10.98;;;18.50;99.90;;;;;;5047115;28;20036;-75
2021/08/12 00:54:44;;;;;;;11.95;10.50;;;18.50;99.90;;;;;;5046728;28;20067;-76
2021/08/12 00:57:10;;;;;;;12.02;10.35;;;18.50;99.90;;;;;;5042874;28;20424;-76
2021/08/12 00:59:37;;;;;;;15.27;12.32;;;18.40;99.90;;;;;;5034465;28;20033;-73
2021/08/12 01:02:13;;;;;;;15.25;11.80;;;18.40;99.90;;;;;;5040425;28;20026;-76
2021/08/12 01:04:46;;;;;;;16.70;12.82;;;18.40;99.90;;;;;;5045911;28;20028;-76
2021/08/12 01:07:20;;;;;;;14.32;12.80;;;18.40;99.90;;;;;;5043004;28;20100;-76
2021/08/12 01:10:23;;;;;;;13.70;12.23;;;18.40;99.90;;;;;;5046080;28;20055;-76
2021/08/12 01:13:02;;;;;;;14.35;10.27;;;18.40;99.90;;;;;;4990657;28;20048;-76
2021/08/12 01:15:37;;;;;;;17.20;10.13;;;18.40;99.90;;;;;;5048591;28;20049;-75
2021/08/12 01:18:10;;;;;;;17.25;10.40;;;18.40;99.90;;;;;;5038449;28;20033;-77
2021/08/12 01:21:13;;;;;;;20.85;10.95;;;18.40;99.90;;;;;;5035918;28;20076;-73
2021/08/12 01:23:39;;;;;;;11.65;9.60;;;18.40;99.90;;;;;;5043084;28;20021;-74
2021/08/12 01:26:07;;;;;;;14.18;10.95;;;18.40;99.90;;;;;;5046475;28;20052;-75
2021/08/12 01:28:42;;;;;;;16.70;11.10;;;18.30;99.90;;;;;;5040954;28;20540;-76
2021/08/12 01:31:22;;;;;;;13.77;11.77;;;18.40;99.90;;;;;;5042463;28;20088;-74
2021/08/12 01:34:09;;;;;;;14.57;12.10;;;18.30;99.90;;;;;;5042991;28;20070;-76
2021/08/12 01:36:40;;;;;;;16.63;12.15;;;18.30;99.90;;;;;;5037124;28;20573;-75
2021/08/12 01:39:08;;;;;;;14.50;11.57;;;18.30;99.90;;;;;;5043309;28;20036;-76
2021/08/12 01:41:35;;;;;;;19.25;13.52;;;18.30;99.90;;;;;;5047629;28;20029;-76
2021/08/12 01:44:01;;;;;;;17.63;12.32;;;18.30;99.90;;;;;;5045747;28;20021;-75
2021/08/12 01:46:28;;;;;;;16.25;14.02;;;18.30;99.90;;;;;;5039863;28;20560;-75
2021/08/12 01:48:55;;;;;;;16.88;12.80;;;18.30;99.90;;;;;;5047408;28;20495;-74
2021/08/12 01:51:26;;;;;;;14.93;13.27;;;18.30;99.90;;;;;;5038745;28;20110;-75
2021/08/12 01:53:53;;;;;;;16.52;13.73;;;18.30;99.90;;;;;;5033991;28;20021;-76
2021/08/12 01:56:20;;;;;;;17.23;13.20;;;18.30;99.90;;;;;;5048929;28;20021;-73
2021/08/12 01:58:47;;;;;;;18.10;13.02;;;18.30;99.90;;;;;;5050431;28;20432;-73
2021/08/12 02:01:13;;;;;;;18.75;13.73;;;18.30;99.90;;;;;;5046256;28;20092;-75
2021/08/12 02:03:41;;;;;;;17.48;12.93;;;18.30;99.90;;;;;;5043453;28;20025;-74
2021/08/12 02:06:09;;;;;;;16.83;12.98;;;18.20;99.90;;;;;;5050822;28;20029;-75
2021/08/12 02:08:36;;;;;;;18.85;14.57;;;18.20;99.90;;;;;;5041652;28;20025;-74
2021/08/12 02:11:01;;;;;;;18.58;14.10;;;18.20;99.90;;;;;;5046913;28;20052;-73
2021/08/12 02:13:28;;;;;;;14.45;12.00;;;18.20;99.90;;;;;;5047544;28;20060;-75
2021/08/12 02:15:54;;;;;;;14.68;12.23;;;18.20;99.90;;;;;;5043415;28;20381;-75
2021/08/12 02:18:20;;;;;;;13.73;10.43;;;18.10;99.90;;;;;;5048222;28;20108;-75
2021/08/12 02:21:23;;;;;;;15.70;11.05;;;18.20;99.90;;;;;;5048918;28;20025;-75
2021/08/12 02:23:59;;;;;;;13.52;11.30;;;18.10;99.90;;;;;;5003763;28;20038;-76
2021/08/12 02:26:40;;;;;;;14.70;11.18;;;18.20;99.90;;;;;;5041199;28;20115;-75
2021/08/12 02:29:08;;;;;;;15.48;11.30;;;18.10;99.90;;;;;;5041015;28;20505;-78
2021/08/12 02:31:34;;;;;;;13.23;11.52;;;18.10;99.90;;;;;;5045859;28;20545;-75
2021/08/12 02:34:01;;;;;;;15.63;11.50;;;18.00;99.90;;;;;;5043739;28;20029;-76
2021/08/12 02:36:29;;;;;;;14.15;12.65;;;18.00;99.90;;;;;;5033550;28;20036;-76
2021/08/12 02:38:55;;;;;;;16.55;12.57;;;18.00;99.90;;;;;;5048168;28;20027;-75
2021/08/12 02:41:23;;;;;;;16.15;13.23;;;17.90;99.90;;;;;;5050325;28;20438;-75
2021/08/12 02:43:51;;;;;;;17.02;13.82;;;18.00;99.90;;;;;;5043494;28;20022;-75
2021/08/12 02:46:18;;;;;;;17.50;14.38;;;18.00;99.90;;;;;;5047881;28;20021;-75
2021/08/12 02:48:45;;;;;;;14.57;12.80;;;18.00;99.90;;;;;;5043602;28;20469;-76
2021/08/12 02:51:13;;;;;;;16.80;13.52;;;18.00;99.90;;;;;;5036482;28;20036;-76
2021/08/12 02:53:39;;;;;;;17.80;14.52;;;17.90;99.90;;;;;;5046582;28;20385;-75
2021/08/12 02:56:10;;;;;;;20.38;13.93;;;17.90;99.90;;;;;;5051159;28;20031;-76
2021/08/12 02:58:38;;;;;;;14.30;12.27;;;17.90;99.90;;;;;;5050176;28;20056;-76
2021/08/12 03:01:06;;;;;;;16.95;12.32;;;17.90;99.90;;;;;;5046219;28;20032;-76
2021/08/12 03:03:35;;;;;;;13.88;12.35;;;17.90;99.90;;;;;;5046022;28;20563;-76
2021/08/12 03:06:02;;;;;;;17.65;12.77;;;17.80;99.90;;;;;;5041096;28;20033;-75
2021/08/12 03:08:30;;;;;;;17.20;13.48;;;17.80;99.90;;;;;;5028593;28;20037;-76
2021/08/12 03:10:57;;;;;;;18.05;11.25;;;17.70;99.90;;;;;;5036966;28;20024;-76
2021/08/12 03:13:22;;;;;;;14.38;11.68;;;17.70;99.90;;;;;;5011126;28;20022;-75
2021/08/12 03:15:49;;;;;;;18.45;13.43;;;17.70;99.90;;;;;;5043235;28;20354;-76
2021/08/12 03:18:16;;;;;;;15.48;11.40;;;17.70;99.90;;;;;;5044082;28;20092;-76
2021/08/12 03:20:42;;;;;;;19.00;14.90;;;17.60;99.90;;;;;;5043040;28;20481;-76
2021/08/12 03:23:09;;;;;;;15.43;12.52;;;17.60;99.90;;;;;;5040381;28;20115;-76
2021/08/12 03:25:35;;;;;;;15.88;13.35;;;17.60;99.90;;;;;;5048459;28;20084;-76
2021/08/12 03:28:00;;;;;;;15.57;12.95;;;17.60;99.90;;;;;;5042419;28;20041;-75
2021/08/12 03:30:26;;;;;;;15.40;12.43;;;17.60;99.90;;;;;;5049584;28;20033;-75
2021/08/12 03:32:52;;;;;;;15.82;12.10;;;17.60;99.90;;;;;;5041876;28;20113;-76
2021/08/12 03:35:18;;;;;;;15.48;12.13;;;17.50;99.90;;;;;;5045737;28;20375;-76
2021/08/12 03:37:44;;;;;;;17.92;12.15;;;17.60;99.90;;;;;;5043150;28;20034;-75
2021/08/12 03:40:10;;;;;;;15.25;12.75;;;17.50;99.90;;;;;;5047224;28;20056;-76
2021/08/12 03:42:36;;;;;;;18.27;12.93;;;17.50;99.90;;;;;;5043166;28;20021;-76
2021/08/12 03:45:02;;;;;;;15.73;12.93;;;17.50;99.90;;;;;;5042222;28;20497;-76
2021/08/12 03:47:28;;;;;;;18.55;13.75;;;17.50;99.90;;;;;;5032701;28;20373;-75
2021/08/12 03:49:54;;;;;;;18.40;13.95;;;17.40;99.90;;;;;;5043084;28;20024;-76
2021/08/12 03:52:19;;;;;;;16.25;13.20;;;17.40;99.90;;;;;;5031564;28;20017;-75
2021/08/12 03:54:45;;;;;;;18.15;14.18;;;17.40;99.90;;;;;;5037658;28;20385;-76
2021/08/12 03:57:11;;;;;;;16.70;14.40;;;17.40;99.90;;;;;;5041619;28;20037;-75
2021/08/12 03:59:36;;;;;;;18.05;13.70;;;17.40;99.90;;;;;;5044336;28;20187;-76
2021/08/12 04:02:02;;;;;;;16.20;13.80;;;17.40;99.90;;;;;;5046698;28;20033;-74
2021/08/12 04:04:28;;;;;;;20.20;13.93;;;17.40;99.90;;;;;;5044504;28;20026;-74
2021/08/12 04:06:54;;;;;;;18.35;10.48;;;17.40;99.90;;;;;;5047140;28;20025;-73
2021/08/12 04:09:20;;;;;;;12.07;9.50;;;17.30;99.90;;;;;;5048288;28;20619;-75
2021/08/12 04:11:45;;;;;;;13.27;11.07;;;17.40;99.90;;;;;;5041935;28;20021;-76
2021/08/12 04:14:11;;;;;;;16.92;12.02;;;17.40;99.90;;;;;;5043397;28;20036;-76
2021/08/12 04:16:37;;;;;;;16.55;12.88;;;17.30;99.90;;;;;;5049729;28;20040;-76
2021/08/12 04:19:04;;;;;;;16.40;12.40;;;17.30;99.90;;;;;;5047108;28;20063;-76
2021/08/12 04:21:30;;;;;;;18.70;12.48;;;17.30;99.90;;;;;;5049467;28;20396;-76
2021/08/12 04:23:55;;;;;;;14.50;12.43;;;17.30;99.90;;;;;;5046751;28;20021;-76
2021/08/12 04:26:27;;;;;;;16.45;12.45;;;17.30;99.90;;;;;;5048473;28;20434;-73
2021/08/12 04:28:53;;;;;;;17.17;13.20;;;17.30;99.90;;;;;;5046681;28;20389;-76
2021/08/12 04:31:18;;;;;;;13.98;11.65;;;17.30;99.90;;;;;;5048120;28;20043;-76
2021/08/12 04:33:45;;;;;;;15.55;10.82;;;17.20;99.90;;;;;;5047315;28;20447;-76
2021/08/12 04:36:10;;;;;;;15.07;12.07;;;17.20;99.90;;;;;;5044440;28;20025;-76
2021/08/12 04:38:36;;;;;;;19.20;12.43;;;17.20;99.90;;;;;;5046709;28;20105;-75
2021/08/12 04:41:02;;;;;;;13.05;10.73;;;17.20;99.90;;;;;;5052057;28;20028;-76
2021/08/12 04:43:30;;;;;;;17.98;11.20;;;17.20;99.90;;;;;;5043750;28;20060;-76
2021/08/12 04:45:55;;;;;;;18.23;12.27;;;17.20;99.90;;;;;;5026300;28;20022;-76
2021/08/12 04:48:21;;;;;;;18.42;11.48;;;17.20;99.90;;;;;;5049831;28;20124;-75
2021/08/12 04:50:47;;;;;;;17.00;11.73;;;17.20;99.90;;;;;;5043795;28;20043;-74
2021/08/12 04:53:13;;;;;;;18.30;12.50;;;17.20;99.90;;;;;;5043756;28;20033;-74
2021/08/12 04:55:39;;;;;;;15.68;11.73;;;17.20;99.90;;;;;;5051059;28;20072;-76
2021/08/12 04:58:05;;;;;;;16.67;11.25;;;17.20;99.90;;;;;;5044782;28;20080;-76
2021/08/12 05:00:31;;;;;;;16.13;11.35;;;17.10;99.90;;;;;;5049549;28;20033;-75
2021/08/12 05:02:57;;;;;;;16.98;11.15;;;17.10;99.90;;;;;;5050198;28;20029;-74
2021/08/12 05:05:23;;;;;;;14.05;10.23;;;17.10;99.90;;;;;;5055128;28;20079;-76
2021/08/12 05:07:48;;;;;;;17.13;11.55;;;17.10;99.90;;;;;;5050156;28;20033;-76
2021/08/12 05:10:14;;;;;;;16.23;10.27;;;17.10;99.90;;;;;;5046294;28;20075;-76
2021/08/12 05:12:40;;;;;;;15.43;10.15;;;17.10;99.90;;;;;;5053987;28;20028;-76
2021/08/12 05:15:06;;;;;;;18.50;9.80;;;17.10;99.90;;;;;;5044462;28;20024;-75
2021/08/12 05:17:32;;;;;;;14.45;9.35;;;17.10;99.90;;;;;;5045765;28;20081;-76
2021/08/12 05:19:57;;;;;;;13.52;10.13;;;17.10;99.90;;;;;;5053071;28;20060;-76
2021/08/12 05:22:24;;;;;;;14.80;12.15;;;17.10;99.90;;;;;;5048992;28;20017;-75
2021/08/12 05:24:50;;;;;;;18.58;14.13;;;17.10;99.90;;;;;;5031877;28;20112;-76
2021/08/12 05:27:16;;;;;;;13.75;10.32;;;17.10;99.90;;;;;;5048698;28;20029;-75
2021/08/12 05:29:42;;;;;;;15.00;10.00;;;17.20;99.90;;;;;;5049695;28;20083;-76
2021/08/12 05:32:08;;;;;;;11.15;9.80;;;17.20;99.90;;;;;;5044304;28;20025;-74
2021/08/12 05:34:34;;;;;;;14.63;9.65;;;17.20;99.90;;;;;;5044510;28;20021;-74
2021/08/12 05:36:59;;;;;;;15.77;10.60;;;17.20;99.90;;;;;;5049825;28;20022;-76
2021/08/12 05:39:26;;;;;;;12.75;9.70;;;17.10;99.90;;;;;;5041437;28;20044;-75
2021/08/12 05:41:52;;;;;;;13.32;9.73;;;17.20;99.90;;;;;;5046453;28;20064;-76
2021/08/12 05:44:18;;;;;;;14.95;10.88;;;17.20;99.90;;;;;;5050320;28;20032;-76
2021/08/12 05:46:46;;;;;;;15.90;11.30;;;17.20;99.90;;;;;;5035122;28;20025;-76
2021/08/12 05:49:12;;;;;;;10.88;8.90;;;17.30;99.90;;;;;;5044156;28;20507;-76
2021/08/12 05:51:38;;;;;;;9.85;8.55;;;17.20;99.90;;;;;;5051018;28;20013;-75
2021/08/12 05:54:06;;;;;;;10.70;8.70;;;17.30;99.90;;;;;;5048323;28;20029;-75
2021/08/12 05:56:32;;;;;;;13.85;9.60;;;17.40;99.90;;;;;;5050956;28;20528;-76
2021/08/12 05:58:58;;;;;;;11.77;8.73;;;17.40;99.90;;;;;;5050983;28;20033;-74
2021/08/12 06:01:24;;;;;;;12.05;8.98;;;17.40;99.90;;;;;;5046425;28;20551;-76
2021/08/12 06:03:49;;;;;;;9.70;8.55;;;17.40;99.90;;;;;;5039509;28;20520;-76
2021/08/12 06:06:15;;;;;;;10.40;9.10;;;17.40;99.90;;;;;;5051341;28;20087;-76
2021/08/12 06:08:42;;;;;;;15.75;9.20;;;17.50;99.90;;;;;;5045839;28;20094;-75
2021/08/12 06:11:07;;;;;;;10.27;8.90;;;17.50;99.90;;;;;;5041764;28;20032;-76
2021/08/12 06:13:33;;;;;;;12.10;8.77;;;17.50;99.90;;;;;;5049225;28;20029;-76
2021/08/12 06:16:01;;;;;;;10.60;8.70;;;17.50;99.90;;;;;;5039320;28;20025;-76
2021/08/12 06:18:26;;;;;;;11.93;8.77;;;17.50;99.90;;;;;;5044164;28;20443;-76
2021/08/12 06:20:52;;;;;;;12.02;8.40;;;17.60;99.90;;;;;;5049115;28;20017;-76
2021/08/12 06:23:18;;;;;;;13.52;9.70;;;17.60;99.90;;;;;;5047504;28;20038;-76
2021/08/12 06:25:43;;;;;;;12.80;9.30;;;17.60;99.90;;;;;;5045703;28;20092;-76
2021/08/12 06:28:09;;;;;;;13.40;9.15;;;17.60;99.90;;;;;;5047168;28;20437;-76
2021/08/12 06:30:36;;;;;;;16.58;10.50;;;17.70;99.90;;;;;;5050085;28;20029;-76
2021/08/12 06:33:02;;;;;;;16.40;10.70;;;17.70;99.90;;;;;;5044133;28;20085;-79
2021/08/12 06:35:31;;;;;;;17.45;11.18;;;17.70;99.90;;;;;;5045534;28;20033;-76
2021/08/12 06:37:57;;;;;;;14.05;10.80;;;17.70;99.90;;;;;;5044304;28;20120;-75
2021/08/12 06:40:24;;;;;;;17.85;12.93;;;17.80;99.90;;;;;;5039720;28;20096;-82
2021/08/12 06:42:51;;;;;;;18.42;12.13;;;17.80;99.90;;;;;;5027337;28;20024;-83
2021/08/12 06:45:21;;;;;;;16.35;12.95;;;17.70;99.90;;;;;;5042997;28;20100;-77
2021/08/12 06:47:48;;;;;;;18.88;12.13;;;17.70;99.90;;;;;;5048446;28;20440;-76
2021/08/12 06:50:20;;;;;;;16.60;11.40;;;17.70;99.90;;;;;;5042629;28;20388;-76
2021/08/12 06:52:46;;;;;;;17.35;11.73;;;17.80;99.90;;;;;;5047959;28;20016;-75
2021/08/12 06:55:13;;;;;;;15.85;11.73;;;17.90;99.90;;;;;;5039566;28;20033;-76
2021/08/12 06:57:38;;;;;;;15.27;11.82;;;17.90;99.90;;;;;;5049471;28;20013;-76
2021/08/12 07:00:06;;;;;;;17.73;12.63;;;17.90;99.90;;;;;;5043147;28;20704;-76
2021/08/12 07:02:32;;;;;;;16.10;11.23;;;18.00;99.90;;;;;;5044630;28;20510;-76
2021/08/12 07:04:57;;;;;;;14.88;10.60;;;18.00;99.90;;;;;;5051552;28;20017;-76
2021/08/12 07:07:23;;;;;;;13.93;10.57;;;18.10;99.90;;;;;;5046956;28;20069;-76
2021/08/12 07:09:51;;;;;;;15.23;10.90;;;18.10;99.90;;;;;;5046269;28;20056;-76
2021/08/12 07:12:17;;;;;;;13.50;10.23;;;18.20;99.90;;;;;;5047751;28;20464;-76
2021/08/12 07:14:42;;;;;;;16.25;11.77;;;18.30;99.90;;;;;;5032650;28;20053;-75
2021/08/12 07:17:08;;;;;;;14.35;11.05;;;18.40;99.90;;;;;;5042052;28;20075;-74
2021/08/12 07:19:34;;;;;;;21.85;13.55;;;18.40;99.90;;;;;;5046812;28;20021;-72
2021/08/12 07:21:59;;;;;;;20.75;12.18;;;18.40;99.90;;;;;;5047382;28;20042;-72
2021/08/12 07:24:25;;;;;;;21.23;12.45;;;18.50;99.90;;;;;;5039874;28;20053;-73
2021/08/12 07:26:52;;;;;;;20.40;12.18;;;18.60;99.90;;;;;;5040875;28;20036;-75
2021/08/12 07:29:18;;;;;;;20.50;13.23;;;18.60;99.90;;;;;;5041789;28;20031;-75
2021/08/12 07:31:44;;;;;;;21.08;13.88;;;18.70;99.90;;;;;;5041330;28;20109;-76
2021/08/12 07:34:10;;;;;;;24.10;15.18;;;18.80;99.90;;;;;;5042473;28;20108;-76
2021/08/12 07:36:37;;;;;;;22.92;13.63;;;19.00;99.90;;;;;;5045459;28;20021;-76
2021/08/12 07:39:04;;;;;;;22.05;13.70;;;19.10;99.90;;;;;;5043127;28;20025;-77
2021/08/12 07:41:31;;;;;;;18.40;13.57;;;19.20;99.90;;;;;;5047215;28;20075;-75
2021/08/12 07:43:56;;;;;;;22.83;15.98;;;19.30;99.90;;;;;;5044316;28;20393;-76
2021/08/12 07:46:22;;;;;;;18.98;12.82;;;19.30;99.90;;;;;;5047156;28;20033;-75
2021/08/12 07:48:48;;;;;;;21.75;12.63;;;19.50;99.90;;;;;;5048039;28;20029;-75
2021/08/12 07:51:13;;;;;;;19.25;13.52;;;19.70;99.90;;;;;;5042980;28;20560;-77
2021/08/12 07:53:39;;;;;;;18.67;12.35;;;19.80;99.90;;;;;;5023821;28;20029;-76
2021/08/12 07:56:05;;;;;;;19.45;13.95;;;20.00;99.90;;;;;;5041592;28;20017;-74
2021/08/12 07:58:30;;;;;;;20.00;13.20;;;20.10;99.90;;;;;;5036155;28;20029;-75
2021/08/12 08:00:56;;;;;;;16.83;13.48;;;20.30;99.90;;;;;;5034038;28;20052;-74
2021/08/12 08:03:21;;;;;;;24.05;15.55;;;20.40;99.90;;;;;;5041418;28;20469;-73
2021/08/12 08:05:47;;;;;;;17.65;11.10;;;20.60;99.90;;;;;;5044525;28;20033;-74
2021/08/12 08:08:13;;;;;;;16.52;10.35;;;20.60;99.90;;;;;;5043897;28;20617;-74
2021/08/12 08:10:38;;;;;;;17.58;10.45;;;20.70;99.90;;;;;;5029757;28;20024;-74
2021/08/12 08:13:04;;;;;;;13.18;9.52;;;20.90;99.90;;;;;;5046955;28;20444;-74
2021/08/12 08:15:30;;;;;;;13.18;10.13;;;20.90;99.90;;;;;;5042200;28;20394;-74
2021/08/12 08:17:55;;;;;;;13.35;8.68;;;21.00;99.90;;;;;;5042824;28;20025;-75
2021/08/12 08:20:21;;;;;;;12.07;8.15;;;21.10;99.90;;;;;;5049250;28;20453;-74
2021/08/12 08:22:47;;;;;;;13.63;8.45;;;21.20;99.90;;;;;;5045608;28;20033;-74
2021/08/12 08:25:13;;;;;;;9.23;7.35;;;21.30;99.90;;;;;;5027506;28;20013;-73
2021/08/12 08:27:39;;;;;;;10.05;7.80;;;21.40;99.90;;;;;;5041004;28;20040;-74
2021/08/12 08:30:06;;;;;;;9.57;8.43;;;21.40;99.90;;;;;;5047320;28;20072;-74
2021/08/12 08:32:32;;;;;;;8.45;7.15;;;21.50;99.90;;;;;;5041014;28;20048;-74
2021/08/12 08:34:59;;;;;;;9.15;6.60;;;21.60;99.90;;;;;;5043339;28;20017;-75
2021/08/12 08:37:25;;;;;;;12.35;7.38;;;21.80;99.90;;;;;;5048822;28;20434;-74
2021/08/12 08:39:51;;;;;;;7.30;6.50;;;21.90;99.90;;;;;;5046489;28;20017;-76
2021/08/12 08:42:17;;;;;;;11.73;7.40;;;21.80;99.90;;;;;;5040838;28;20032;-75
2021/08/12 08:44:45;;;;;;;9.15;6.53;;;21.90;99.90;;;;;;5040955;28;20108;-74
2021/08/12 08:47:14;;;;;;;9.80;7.70;;;22.00;99.90;;;;;;5049093;28;20032;-75
2021/08/12 08:49:42;;;;;;;9.13;8.20;;;22.10;99.90;;;;;;5044971;28;20009;-75
2021/08/12 08:52:11;;;;;;;9.27;7.75;;;22.20;99.90;;;;;;5044579;28;20477;-75
2021/08/12 08:54:38;;;;;;;8.75;7.20;;;22.30;99.90;;;;;;5049805;28;20037;-75
2021/08/12 08:57:08;;;;;;;12.80;7.65;;;22.40;99.90;;;;;;5050802;28;20026;-76
2021/08/12 08:59:37;;;;;;;10.88;7.70;;;22.60;99.90;;;;;;5050310;28;20040;-75
2021/08/12 09:02:08;;;;;;;9.45;7.65;;;22.70;99.90;;;;;;5045789;28;20038;-75
2021/08/12 09:04:35;;;;;;;15.38;9.07;;;22.80;99.90;;;;;;5048765;28;20492;-75
2021/08/12 09:07:05;;;;;;;14.88;8.50;;;22.90;99.90;;;;;;5034311;28;20094;-76
2021/08/12 09:09:32;;;;;;;10.98;8.30;;;23.10;99.90;;;;;;5045518;28;20033;-76
2021/08/12 09:12:00;;;;;;;11.32;7.70;;;23.20;99.90;;;;;;5047994;28;20022;-75
2021/08/12 09:14:31;;;;;;;8.38;7.07;;;23.20;99.90;;;;;;5044046;28;20021;-74
2021/08/12 09:16:57;;;;;;;7.35;6.65;;;23.20;99.90;;;;;;5048011;28;20049;-72
2021/08/12 09:19:24;;;;;;;7.50;6.45;;;23.30;99.90;;;;;;5048746;28;20417;-71
2021/08/12 09:21:57;;;;;;;8.85;6.93;;;23.30;99.90;;;;;;5039767;28;20021;-71
2021/08/12 09:24:23;;;;;;;8.65;6.70;;;23.60;99.90;;;;;;5041050;28;20028;-71
2021/08/12 09:26:49;;;;;;;8.55;6.85;;;23.80;99.90;;;;;;5042892;28;20033;-72
2021/08/12 09:29:32;;;;;;;7.53;6.28;;;23.90;99.90;;;;;;5047155;28;20021;-72
2021/08/12 09:32:03;;;;;;;8.93;6.28;;;24.00;99.90;;;;;;5043905;28;20040;-72
2021/08/12 09:34:46;;;;;;;10.23;6.50;;;24.00;99.90;;;;;;5045956;28;20029;-72
2021/08/12 09:37:13;;;;;;;10.23;6.25;;;24.20;99.90;;;;;;5044761;28;20496;-73
2021/08/12 09:39:40;;;;;;;8.02;5.63;;;24.20;99.90;;;;;;5046794;28;20025;-73
2021/08/12 09:42:08;;;;;;;7.05;5.85;;;24.40;99.90;;;;;;5051405;28;20013;-74
2021/08/12 09:44:43;;;;;;;6.65;6.03;;;24.70;99.90;;;;;;5041719;28;20120;-75
2021/08/12 09:47:14;;;;;;;7.60;5.88;;;24.80;99.90;;;;;;5050385;28;20116;-75
2021/08/12 09:49:51;;;;;;;6.35;5.28;;;24.80;99.90;;;;;;5049265;28;20429;-74
2021/08/12 09:52:31;;;;;;;38.85;12.07;;;25.00;99.90;;;;;;5042501;28;20032;-75
2021/08/12 09:55:09;;;;;;;6.68;5.05;;;25.00;99.90;;;;;;5044377;28;20029;-75
2021/08/12 09:57:44;;;;;;;7.70;5.50;;;25.10;99.90;;;;;;5048055;28;20485;-75
2021/08/12 10:00:33;;;;;;;5.68;4.57;;;25.30;99.90;;;;;;5043945;28;20389;-75
2021/08/12 10:03:00;;;;;;;20.48;9.52;;;25.50;99.90;;;;;;5043201;28;20060;-75
2021/08/12 10:05:27;;;;;;;11.40;6.53;;;25.70;99.90;;;;;;5045000;28;20505;-76
2021/08/12 10:07:54;;;;;;;8.27;4.55;;;25.60;99.90;;;;;;5043637;28;20033;-75
2021/08/12 10:10:22;;;;;;;5.15;4.65;;;25.40;99.90;;;;;;5048469;28;20024;-74
2021/08/12 10:12:51;;;;;;;6.22;4.05;;;25.10;99.90;;;;;;5048590;28;20140;-75
2021/08/12 10:15:18;;;;;;;6.43;4.78;;;25.00;99.90;;;;;;5036337;28;20021;-75
2021/08/12 10:17:45;;;;;;;6.80;4.47;;;24.90;99.90;;;;;;5052258;28;20016;-75
2021/08/12 10:20:17;;;;;;;10.50;5.30;;;25.10;99.90;;;;;;5046748;28;20021;-75
2021/08/12 10:22:44;;;;;;;5.93;5.20;;;25.40;99.90;;;;;;5045150;28;20032;-75
2021/08/12 10:25:11;;;;;;;6.70;4.97;;;25.60;99.90;;;;;;5044349;28;20377;-75
2021/08/12 10:27:39;;;;;;;7.55;4.55;;;25.70;99.90;;;;;;5029239;28;20187;-75
2021/08/12 10:30:06;;;;;;;5.13;4.72;;;25.70;99.90;;;;;;5054443;28;20483;-75
2021/08/12 10:32:33;;;;;;;4.88;4.47;;;25.90;99.90;;;;;;5043988;28;20039;-75
2021/08/12 10:34:59;;;;;;;4.05;3.75;;;26.00;99.90;;;;;;5041580;28;20076;-75
2021/08/12 10:37:26;;;;;;;6.82;4.35;;;26.30;99.90;;;;;;5040927;28;20460;-75
2021/08/12 10:39:52;;;;;;;5.22;4.40;;;26.40;99.90;;;;;;5051124;28;20033;-75
2021/08/12 10:42:19;;;;;;;4.95;4.50;;;26.50;99.90;;;;;;5042641;28;20146;-75
2021/08/12 10:44:45;;;;;;;8.15;7.00;;;26.60;99.90;;;;;;5043750;28;20547;-75
2021/08/12 10:47:42;;;;;;;5.90;4.60;;;26.80;99.90;;;;;;5049593;28;20052;-75
2021/08/12 10:50:31;;;;;;;5.07;4.55;;;26.70;99.90;;;;;;5034614;28;20032;-75
2021/08/12 10:53:13;;;;;;;7.70;5.18;;;26.40;99.90;;;;;;5045342;28;20029;-75
2021/08/12 10:55:39;;;;;;;85.85;75.95;;;26.30;99.90;;;;;;5048904;28;20361;-75
2021/08/12 10:58:23;;;;;;;172.50;155.00;;;27.50;99.90;;;;;;5049408;28;20009;-75
2021/08/12 11:00:49;;;;;;;549.30;493.80;;;28.30;99.90;;;;;;5048280;28;20040;-75
2021/08/12 11:03:35;;;;;;;11.40;9.52;;;28.70;99.90;;;;;;5043507;28;20109;-74
2021/08/12 11:06:18;;;;;;;21.88;19.55;;;27.90;99.90;;;;;;5043871;28;20037;-75
2021/08/12 11:08:50;;;;;;;8.05;5.15;;;28.00;99.90;;;;;;5039254;28;20140;-74
2021/08/12 11:11:21;;;;;;;9.10;5.07;;;27.70;99.90;;;;;;5048839;28;20076;-75
2021/08/12 11:14:10;;;;;;;5.67;5.10;;;27.60;99.90;;;;;;5046675;28;20429;-75
2021/08/12 11:16:42;;;;;;;5.85;4.43;;;27.50;99.90;;;;;;5032673;28;20389;-75
2021/08/12 11:19:09;;;;;;;7.10;4.35;;;27.40;99.90;;;;;;5039722;28;20087;-74
2021/08/12 11:21:37;;;;;;;5.78;4.35;;;27.40;99.90;;;;;;5038727;28;20029;-74
2021/08/12 11:24:06;;;;;;;4.78;4.07;;;27.40;99.90;;;;;;5052248;28;20020;-75
2021/08/12 11:26:55;;;;;;;7.22;4.78;;;27.40;99.90;;;;;;5046282;28;20086;-75
2021/08/12 11:29:29;;;;;;;4.60;4.20;;;27.50;99.90;;;;;;5037217;28;20077;-74
2021/08/12 11:32:02;;;;;;;7.65;4.60;;;27.40;99.90;;;;;;5044182;28;20036;-74
2021/08/12 11:34:50;;;;;;;4.85;4.28;;;27.30;99.90;;;;;;5051519;28;20021;-74
2021/08/12 11:37:19;;;;;;;5.25;4.28;;;27.40;99.90;;;;;;5042681;28;20033;-74
2021/08/12 11:39:54;;;;;;;5.88;4.78;;;27.20;99.90;;;;;;5041923;28;20029;-74
2021/08/12 11:42:31;;;;;;;5.93;4.75;;;27.30;99.90;;;;;;5041882;28;20080;-74
2021/08/12 11:45:10;;;;;;;5.95;4.32;;;27.30;99.90;;;;;;5047365;28;20108;-74
2021/08/12 11:47:41;;;;;;;7.20;4.47;;;27.20;99.90;;;;;;5038882;28;20143;-73
2021/08/12 11:50:09;;;;;;;4.70;4.30;;;27.00;99.90;;;;;;5048247;28;20029;-73
2021/08/12 11:52:37;;;;;;;6.35;4.45;;;26.90;99.90;;;;;;5047965;28;20084;-74
2021/08/12 11:55:13;;;;;;;6.35;4.85;;;26.90;99.90;;;;;;5048316;28;20013;-73
2021/08/12 11:57:56;;;;;;;5.32;4.40;;;26.80;99.90;;;;;;5042116;28;20025;-74
2021/08/12 12:00:30;;;;;;;;;;;26.60;99.90;;;;;;5042071;28;20324;-73
2021/08/12 12:03:27;;;;;;;5.50;4.75;;;26.60;99.90;;;;;;5040479;28;19963;-73
2021/08/12 12:05:52;;;;;;;6.90;4.40;;;26.80;99.90;;;;;;5042657;28;20104;-73
2021/08/12 12:08:27;;;;;;;5.25;4.57;;;26.80;99.90;;;;;;5048585;28;20104;-73
2021/08/12 12:10:53;;;;;;;8.70;4.82;;;26.80;99.90;;;;;;5050050;28;20025;-73
2021/08/12 12:13:20;;;;;;;5.25;4.75;;;26.70;99.90;;;;;;5043569;28;20036;-73
2021/08/12 12:15:50;;;;;;;6.45;4.97;;;26.70;99.90;;;;;;5039086;28;20021;-74
2021/08/12 12:18:54;;;;;;;6.03;4.82;;;26.60;99.90;;;;;;5043647;28;20079;-73
2021/08/12 12:21:20;;;;;;;6.63;5.10;;;26.60;99.90;;;;;;4974380;28;20023;-74
2021/08/12 12:23:48;;;;;;;7.40;5.22;;;26.60;99.90;;;;;;4972876;28;20037;-74
2021/08/12 12:26:21;;;;;;;6.85;5.18;;;26.70;99.90;;;;;;5009637;28;20444;-73
2021/08/12 12:28:50;;;;;;;6.60;4.93;;;26.70;99.90;;;;;;5049613;28;20037;-73
2021/08/12 12:31:23;;;;;;;6.28;5.13;;;26.70;99.90;;;;;;5050649;28;20372;-73
2021/08/12 12:34:01;;;;;;;8.65;5.57;;;26.60;99.90;;;;;;5042101;28;20017;-73
2021/08/12 12:36:28;;;;;;;6.88;5.32;;;26.70;99.90;;;;;;5044636;28;20036;-73
2021/08/12 12:38:54;;;;;;;8.20;5.05;;;26.70;99.90;;;;;;5036703;28;20562;-73
2021/08/12 12:41:23;;;;;;;5.07;4.63;;;26.80;99.90;;;;;;5044914;28;20088;-73